sensor_id;sensor_type;location;lat;lon;timestamp;temperature;humidity
48666;DHT22;34452;50.796;4.994;2023-08-17T00:01:56;19.70;99.90
48666;DHT22;34452;50.796;4.994;2023-08-17T00:04:22;19.80;99.90
48666;DHT22;34452;50.796;4.994;2023-08-17T00:06:47;19.80;99.90
48666;DHT22;34452;50.796;4.994;2023-08-17T00:09:13;19.70;99.90
48666;DHT22;34452;50.796;4.994;2023-08-17T00:11:39;19.70;99.90
48666;DHT22;34452;50.796;4.994;2023-08-17T00:14:05;19.80;99.90
48666;DHT22;34452;50.796;4.994;2023-08-17T00:16:31;19.80;99.90
48666;DHT22;34452;50.796;4.994;2023-08-17T00:18:57;19.80;99.90
48666;DHT22;34452;50.796;4.994;2023-08-17T00:21:23;19.70;99.90
48666;DHT22;34452;50.796;4.994;2023-08-17T00:23:49;19.70;99.90
48666;DHT22;34452;50.796;4.994;2023-08-17T00:26:15;19.70;99.90
48666;DHT22;34452;50.796;4.994;2023-08-17T00:28:40;19.80;99.90
48666;DHT22;34452;50.796;4.994;2023-08-17T00:31:06;19.70;99.90
48666;DHT22;34452;50.796;4.994;2023-08-17T00:33:32;19.80;99.90
48666;DHT22;34452;50.796;4.994;2023-08-17T00:35:58;19.70;99.90
48666;DHT22;34452;50.796;4.994;2023-08-17T00:38:24;19.70;99.90
48666;DHT22;34452;50.796;4.994;2023-08-17T00:40:50;19.80;99.90
48666;DHT22;34452;50.796;4.994;2023-08-17T00:43:15;19.80;99.90
48666;DHT22;34452;50.796;4.994;2023-08-17T00:45:42;19.80;99.90
48666;DHT22;34452;50.796;4.994;2023-08-17T00:48:09;19.80;99.90
48666;DHT22;34452;50.796;4.994;2023-08-17T00:50:35;19.70;99.90
48666;DHT22;34452;50.796;4.994;2023-08-17T00:53:02;19.80;99.90
48666;DHT22;34452;50.796;4.994;2023-08-17T00:55:28;19.70;99.90
48666;DHT22;34452;50.796;4.994;2023-08-17T00:57:56;19.70;99.90
48666;DHT22;34452;50.796;4.994;2023-08-17T01:00:24;19.70;99.90
48666;DHT22;34452;50.796;4.994;2023-08-17T01:02:51;19.70;99.90
48666;DHT22;34452;50.796;4.994;2023-08-17T01:05:17;19.70;99.90
48666;DHT22;34452;50.796;4.994;2023-08-17T01:07:42;19.70;99.90
48666;DHT22;34452;50.796;4.994;2023-08-17T01:10:09;19.70;99.90
48666;DHT22;34452;50.796;4.994;2023-08-17T01:18:31;19.60;99.90
48666;DHT22;34452;50.796;4.994;2023-08-17T01:20:58;19.50;99.90
48666;DHT22;34452;50.796;4.994;2023-08-17T01:23:25;19.50;99.90
48666;DHT22;34452;50.796;4.994;2023-08-17T01:25:51;19.40;99.90
48666;DHT22;34452;50.796;4.994;2023-08-17T01:28:19;19.40;99.90
48666;DHT22;34452;50.796;4.994;2023-08-17T01:30:50;19.40;99.90
48666;DHT22;34452;50.796;4.994;2023-08-17T01:33:40;19.30;99.90
48666;DHT22;34452;50.796;4.994;2023-08-17T01:36:25;19.30;99.90
48666;DHT22;34452;50.796;4.994;2023-08-17T01:38:53;19.30;99.90
48666;DHT22;34452;50.796;4.994;2023-08-17T01:41:22;19.30;99.90
48666;DHT22;34452;50.796;4.994;2023-08-17T01:43:49;19.20;99.90
48666;DHT22;34452;50.796;4.994;2023-08-17T01:46:16;19.20;99.90
48666;DHT22;34452;50.796;4.994;2023-08-17T01:48:43;19.10;99.90
48666;DHT22;34452;50.796;4.994;2023-08-17T01:51:16;19.10;99.90
48666;DHT22;34452;50.796;4.994;2023-08-17T01:53:41;19.10;99.90
48666;DHT22;34452;50.796;4.994;2023-08-17T01:56:07;19.10;99.90
48666;DHT22;34452;50.796;4.994;2023-08-17T01:58:33;19.10;99.90
48666;DHT22;34452;50.796;4.994;2023-08-17T02:00:59;19.10;99.90
48666;DHT22;34452;50.796;4.994;2023-08-17T02:03:24;19.10;99.90
48666;DHT22;34452;50.796;4.994;2023-08-17T02:05:50;19.20;99.90
48666;DHT22;34452;50.796;4.994;2023-08-17T02:08:16;19.20;99.90
48666;DHT22;34452;50.796;4.994;2023-08-17T02:10:41;19.20;99.90
48666;DHT22;34452;50.796;4.994;2023-08-17T02:13:07;19.10;99.90
48666;DHT22;34452;50.796;4.994;2023-08-17T02:15:37;19.10;99.90
48666;DHT22;34452;50.796;4.994;2023-08-17T02:18:03;19.20;99.90
48666;DHT22;34452;50.796;4.994;2023-08-17T02:20:29;19.10;99.90
48666;DHT22;34452;50.796;4.994;2023-08-17T02:22:55;19.20;99.90
48666;DHT22;34452;50.796;4.994;2023-08-17T02:25:20;19.20;99.90
48666;DHT22;34452;50.796;4.994;2023-08-17T02:27:46;19.20;99.90
48666;DHT22;34452;50.796;4.994;2023-08-17T02:30:12;19.10;99.90
48666;DHT22;34452;50.796;4.994;2023-08-17T02:32:38;19.20;99.90
48666;DHT22;34452;50.796;4.994;2023-08-17T02:35:04;19.10;99.90
48666;DHT22;34452;50.796;4.994;2023-08-17T02:37:30;19.10;99.90
48666;DHT22;34452;50.796;4.994;2023-08-17T02:39:57;19.00;99.90
48666;DHT22;34452;50.796;4.994;2023-08-17T02:42:23;19.00;99.90
48666;DHT22;34452;50.796;4.994;2023-08-17T02:44:48;19.00;99.90
48666;DHT22;34452;50.796;4.994;2023-08-17T02:47:14;18.90;99.90
48666;DHT22;34452;50.796;4.994;2023-08-17T02:49:40;18.90;99.90
48666;DHT22;34452;50.796;4.994;2023-08-17T02:52:06;18.90;99.90
48666;DHT22;34452;50.796;4.994;2023-08-17T02:54:31;18.90;99.90
48666;DHT22;34452;50.796;4.994;2023-08-17T02:56:58;18.90;99.90
48666;DHT22;34452;50.796;4.994;2023-08-17T02:59:24;18.90;99.90
48666;DHT22;34452;50.796;4.994;2023-08-17T03:01:50;18.90;99.90
48666;DHT22;34452;50.796;4.994;2023-08-17T03:04:16;18.90;99.90
48666;DHT22;34452;50.796;4.994;2023-08-17T03:06:41;18.90;99.90
48666;DHT22;34452;50.796;4.994;2023-08-17T03:09:07;18.90;99.90
48666;DHT22;34452;50.796;4.994;2023-08-17T03:11:33;18.90;99.90
48666;DHT22;34452;50.796;4.994;2023-08-17T03:13:58;18.90;99.90
48666;DHT22;34452;50.796;4.994;2023-08-17T03:16:26;18.90;99.90
48666;DHT22;34452;50.796;4.994;2023-08-17T03:18:52;18.90;99.90
48666;DHT22;34452;50.796;4.994;2023-08-17T03:21:18;18.80;99.90
48666;DHT22;34452;50.796;4.994;2023-08-17T03:23:45;18.80;99.90
48666;DHT22;34452;50.796;4.994;2023-08-17T03:26:11;18.80;99.90
48666;DHT22;34452;50.796;4.994;2023-08-17T03:28:37;18.80;99.90
48666;DHT22;34452;50.796;4.994;2023-08-17T03:31:02;18.80;99.90
48666;DHT22;34452;50.796;4.994;2023-08-17T03:33:29;18.80;99.90
48666;DHT22;34452;50.796;4.994;2023-08-17T03:35:55;18.80;99.90
48666;DHT22;34452;50.796;4.994;2023-08-17T03:38:20;18.80;99.90
48666;DHT22;34452;50.796;4.994;2023-08-17T03:40:47;18.80;99.90
48666;DHT22;34452;50.796;4.994;2023-08-17T03:43:13;18.80;99.90
48666;DHT22;34452;50.796;4.994;2023-08-17T03:45:40;18.70;99.90
48666;DHT22;34452;50.796;4.994;2023-08-17T03:48:06;18.70;99.90
48666;DHT22;34452;50.796;4.994;2023-08-17T03:50:32;18.70;99.90
48666;DHT22;34452;50.796;4.994;2023-08-17T03:52:58;18.70;99.90
48666;DHT22;34452;50.796;4.994;2023-08-17T03:55:24;18.70;99.90
48666;DHT22;34452;50.796;4.994;2023-08-17T03:57:49;18.60;99.90
48666;DHT22;34452;50.796;4.994;2023-08-17T04:00:15;18.60;99.90
48666;DHT22;34452;50.796;4.994;2023-08-17T04:02:41;18.60;99.90
48666;DHT22;34452;50.796;4.994;2023-08-17T04:05:07;18.60;99.90
48666;DHT22;34452;50.796;4.994;2023-08-17T04:07:33;18.50;99.90
48666;DHT22;34452;50.796;4.994;2023-08-17T04:09:58;18.50;99.90
48666;DHT22;34452;50.796;4.994;2023-08-17T04:12:24;18.60;99.90
48666;DHT22;34452;50.796;4.994;2023-08-17T04:14:50;18.50;99.90
48666;DHT22;34452;50.796;4.994;2023-08-17T04:17:15;18.60;99.90
48666;DHT22;34452;50.796;4.994;2023-08-17T04:19:41;18.60;99.90
48666;DHT22;34452;50.796;4.994;2023-08-17T04:22:07;18.50;99.90
48666;DHT22;34452;50.796;4.994;2023-08-17T04:24:33;18.50;99.90
48666;DHT22;34452;50.796;4.994;2023-08-17T04:26:58;18.50;99.90
48666;DHT22;34452;50.796;4.994;2023-08-17T04:29:24;18.50;99.90
48666;DHT22;34452;50.796;4.994;2023-08-17T04:31:50;18.50;99.90
48666;DHT22;34452;50.796;4.994;2023-08-17T04:34:15;18.50;99.90
48666;DHT22;34452;50.796;4.994;2023-08-17T04:36:41;18.50;99.90
48666;DHT22;34452;50.796;4.994;2023-08-17T04:39:07;18.50;99.90
48666;DHT22;34452;50.796;4.994;2023-08-17T04:41:34;18.50;99.90
48666;DHT22;34452;50.796;4.994;2023-08-17T04:44:00;18.50;99.90
48666;DHT22;34452;50.796;4.994;2023-08-17T04:46:26;18.50;99.90
48666;DHT22;34452;50.796;4.994;2023-08-17T04:48:51;18.40;99.90
48666;DHT22;34452;50.796;4.994;2023-08-17T04:51:18;18.40;99.90
48666;DHT22;34452;50.796;4.994;2023-08-17T04:53:43;18.50;99.90
48666;DHT22;34452;50.796;4.994;2023-08-17T04:56:09;18.40;99.90
48666;DHT22;34452;50.796;4.994;2023-08-17T04:58:35;18.40;99.90
48666;DHT22;34452;50.796;4.994;2023-08-17T05:01:01;18.40;99.90
48666;DHT22;34452;50.796;4.994;2023-08-17T05:03:27;18.40;99.90
48666;DHT22;34452;50.796;4.994;2023-08-17T05:05:52;18.30;99.90
48666;DHT22;34452;50.796;4.994;2023-08-17T05:08:18;18.30;99.90
48666;DHT22;34452;50.796;4.994;2023-08-17T05:10:44;18.40;99.90
48666;DHT22;34452;50.796;4.994;2023-08-17T05:13:10;18.40;99.90
48666;DHT22;34452;50.796;4.994;2023-08-17T05:15:36;18.40;99.90
48666;DHT22;34452;50.796;4.994;2023-08-17T05:18:02;18.40;99.90
48666;DHT22;34452;50.796;4.994;2023-08-17T05:20:27;18.40;99.90
48666;DHT22;34452;50.796;4.994;2023-08-17T05:22:53;18.40;99.90
48666;DHT22;34452;50.796;4.994;2023-08-17T05:25:19;18.40;99.90
48666;DHT22;34452;50.796;4.994;2023-08-17T05:27:45;18.30;99.90
48666;DHT22;34452;50.796;4.994;2023-08-17T05:30:11;18.40;99.90
48666;DHT22;34452;50.796;4.994;2023-08-17T05:32:36;18.40;99.90
48666;DHT22;34452;50.796;4.994;2023-08-17T05:35:02;18.40;99.90
48666;DHT22;34452;50.796;4.994;2023-08-17T05:37:28;18.40;99.90
48666;DHT22;34452;50.796;4.994;2023-08-17T05:39:54;18.30;99.90
48666;DHT22;34452;50.796;4.994;2023-08-17T05:42:19;18.30;99.90
48666;DHT22;34452;50.796;4.994;2023-08-17T05:44:45;18.30;99.90
48666;DHT22;34452;50.796;4.994;2023-08-17T05:47:11;18.30;99.90
48666;DHT22;34452;50.796;4.994;2023-08-17T05:49:38;18.30;99.90
48666;DHT22;34452;50.796;4.994;2023-08-17T05:52:04;18.40;99.90
48666;DHT22;34452;50.796;4.994;2023-08-17T05:54:30;18.40;99.90
48666;DHT22;34452;50.796;4.994;2023-08-17T05:56:55;18.40;99.90
48666;DHT22;34452;50.796;4.994;2023-08-17T05:59:21;18.40;99.90
48666;DHT22;34452;50.796;4.994;2023-08-17T06:01:47;18.40;99.90
48666;DHT22;34452;50.796;4.994;2023-08-17T06:04:13;18.50;99.90
48666;DHT22;34452;50.796;4.994;2023-08-17T06:06:38;18.60;99.90
48666;DHT22;34452;50.796;4.994;2023-08-17T06:09:04;18.60;99.90
48666;DHT22;34452;50.796;4.994;2023-08-17T06:11:30;18.50;99.90
48666;DHT22;34452;50.796;4.994;2023-08-17T06:13:56;18.50;99.90
48666;DHT22;34452;50.796;4.994;2023-08-17T06:16:21;18.50;99.90
48666;DHT22;34452;50.796;4.994;2023-08-17T06:18:47;18.50;99.90
48666;DHT22;34452;50.796;4.994;2023-08-17T06:21:13;18.50;99.90
48666;DHT22;34452;50.796;4.994;2023-08-17T06:23:39;18.60;99.90
48666;DHT22;34452;50.796;4.994;2023-08-17T06:26:04;18.60;99.90
48666;DHT22;34452;50.796;4.994;2023-08-17T06:28:30;18.70;99.90
48666;DHT22;34452;50.796;4.994;2023-08-17T06:30:56;18.60;99.90
48666;DHT22;34452;50.796;4.994;2023-08-17T06:33:22;18.50;99.90
48666;DHT22;34452;50.796;4.994;2023-08-17T06:35:48;18.50;99.90
48666;DHT22;34452;50.796;4.994;2023-08-17T06:38:14;18.50;99.90
48666;DHT22;34452;50.796;4.994;2023-08-17T06:40:40;18.50;99.90
48666;DHT22;34452;50.796;4.994;2023-08-17T06:43:06;18.50;99.90
48666;DHT22;34452;50.796;4.994;2023-08-17T06:45:32;18.50;99.90
48666;DHT22;34452;50.796;4.994;2023-08-17T06:47:58;18.50;99.90
48666;DHT22;34452;50.796;4.994;2023-08-17T06:50:24;18.60;99.90
48666;DHT22;34452;50.796;4.994;2023-08-17T06:52:52;18.50;99.90
48666;DHT22;34452;50.796;4.994;2023-08-17T06:55:18;18.50;99.90
48666;DHT22;34452;50.796;4.994;2023-08-17T06:57:44;18.50;99.90
48666;DHT22;34452;50.796;4.994;2023-08-17T07:00:10;18.50;99.90
48666;DHT22;34452;50.796;4.994;2023-08-17T07:02:37;18.50;99.90
48666;DHT22;34452;50.796;4.994;2023-08-17T07:05:03;18.40;99.90
48666;DHT22;34452;50.796;4.994;2023-08-17T07:07:30;18.40;99.90
48666;DHT22;34452;50.796;4.994;2023-08-17T07:09:57;18.40;99.90
48666;DHT22;34452;50.796;4.994;2023-08-17T07:12:23;18.40;99.90
48666;DHT22;34452;50.796;4.994;2023-08-17T07:14:50;18.40;99.90
48666;DHT22;34452;50.796;4.994;2023-08-17T07:17:15;18.50;99.90
48666;DHT22;34452;50.796;4.994;2023-08-17T07:19:41;18.60;99.90
48666;DHT22;34452;50.796;4.994;2023-08-17T07:22:07;18.60;99.90
48666;DHT22;34452;50.796;4.994;2023-08-17T07:24:33;18.40;99.90
48666;DHT22;34452;50.796;4.994;2023-08-17T07:26:59;18.40;99.90
48666;DHT22;34452;50.796;4.994;2023-08-17T07:29:24;18.40;99.90
48666;DHT22;34452;50.796;4.994;2023-08-17T07:31:51;18.50;99.90
48666;DHT22;34452;50.796;4.994;2023-08-17T07:34:17;18.50;99.90
48666;DHT22;34452;50.796;4.994;2023-08-17T07:36:42;18.50;99.90
48666;DHT22;34452;50.796;4.994;2023-08-17T07:39:08;18.50;99.90
48666;DHT22;34452;50.796;4.994;2023-08-17T07:41:34;18.60;99.90
48666;DHT22;34452;50.796;4.994;2023-08-17T07:44:00;18.60;99.90
48666;DHT22;34452;50.796;4.994;2023-08-17T07:46:25;18.70;99.90
48666;DHT22;34452;50.796;4.994;2023-08-17T07:48:51;18.70;99.90
48666;DHT22;34452;50.796;4.994;2023-08-17T07:51:17;18.60;99.90
48666;DHT22;34452;50.796;4.994;2023-08-17T07:53:42;18.60;99.90
48666;DHT22;34452;50.796;4.994;2023-08-17T07:56:08;18.70;99.90
48666;DHT22;34452;50.796;4.994;2023-08-17T07:58:34;18.70;99.90
48666;DHT22;34452;50.796;4.994;2023-08-17T08:01:00;18.60;99.90
48666;DHT22;34452;50.796;4.994;2023-08-17T08:03:25;18.80;99.90
48666;DHT22;34452;50.796;4.994;2023-08-17T08:05:52;18.80;99.90
48666;DHT22;34452;50.796;4.994;2023-08-17T08:08:17;18.90;99.90
48666;DHT22;34452;50.796;4.994;2023-08-17T08:10:45;18.90;99.90
48666;DHT22;34452;50.796;4.994;2023-08-17T08:13:11;18.90;99.90
48666;DHT22;34452;50.796;4.994;2023-08-17T08:15:37;19.00;99.90
48666;DHT22;34452;50.796;4.994;2023-08-17T08:18:03;19.00;99.90
48666;DHT22;34452;50.796;4.994;2023-08-17T08:20:29;19.20;99.90
48666;DHT22;34452;50.796;4.994;2023-08-17T08:22:54;19.20;99.90
48666;DHT22;34452;50.796;4.994;2023-08-17T08:25:20;19.20;99.90
48666;DHT22;34452;50.796;4.994;2023-08-17T08:27:46;19.30;99.90
48666;DHT22;34452;50.796;4.994;2023-08-17T08:30:12;19.30;99.90
48666;DHT22;34452;50.796;4.994;2023-08-17T08:32:37;19.40;99.90
48666;DHT22;34452;50.796;4.994;2023-08-17T08:35:04;19.40;99.90
48666;DHT22;34452;50.796;4.994;2023-08-17T08:37:30;19.50;99.90
48666;DHT22;34452;50.796;4.994;2023-08-17T08:39:56;19.40;99.90
48666;DHT22;34452;50.796;4.994;2023-08-17T08:42:22;19.40;99.90
48666;DHT22;34452;50.796;4.994;2023-08-17T08:44:49;19.40;99.90
48666;DHT22;34452;50.796;4.994;2023-08-17T08:47:17;19.40;99.90
48666;DHT22;34452;50.796;4.994;2023-08-17T08:50:01;19.30;99.90
48666;DHT22;34452;50.796;4.994;2023-08-17T08:52:50;19.40;99.90
48666;DHT22;34452;50.796;4.994;2023-08-17T08:55:19;19.50;99.90
48666;DHT22;34452;50.796;4.994;2023-08-17T08:57:47;19.70;99.90
48666;DHT22;34452;50.796;4.994;2023-08-17T09:00:15;19.90;99.90
48666;DHT22;34452;50.796;4.994;2023-08-17T09:02:43;20.10;99.90
48666;DHT22;34452;50.796;4.994;2023-08-17T09:05:10;20.30;99.90
48666;DHT22;34452;50.796;4.994;2023-08-17T09:07:37;20.20;99.90
48666;DHT22;34452;50.796;4.994;2023-08-17T09:10:05;20.20;99.90
48666;DHT22;34452;50.796;4.994;2023-08-17T09:12:31;20.20;99.90
48666;DHT22;34452;50.796;4.994;2023-08-17T09:14:57;20.20;99.90
48666;DHT22;34452;50.796;4.994;2023-08-17T09:17:41;20.30;99.90
48666;DHT22;34452;50.796;4.994;2023-08-17T09:20:08;20.30;99.90
48666;DHT22;34452;50.796;4.994;2023-08-17T09:22:51;20.30;99.90
48666;DHT22;34452;50.796;4.994;2023-08-17T09:25:22;20.20;99.90
48666;DHT22;34452;50.796;4.994;2023-08-17T09:27:48;20.20;99.90
48666;DHT22;34452;50.796;4.994;2023-08-17T09:30:14;20.20;99.90
48666;DHT22;34452;50.796;4.994;2023-08-17T09:32:41;20.10;99.90
48666;DHT22;34452;50.796;4.994;2023-08-17T09:35:07;20.00;99.90
48666;DHT22;34452;50.796;4.994;2023-08-17T09:37:33;20.10;99.90
48666;DHT22;34452;50.796;4.994;2023-08-17T09:39:59;20.20;99.90
48666;DHT22;34452;50.796;4.994;2023-08-17T09:42:25;20.10;99.90
48666;DHT22;34452;50.796;4.994;2023-08-17T09:44:53;20.00;99.90
48666;DHT22;34452;50.796;4.994;2023-08-17T09:47:19;20.10;99.90
48666;DHT22;34452;50.796;4.994;2023-08-17T09:50:03;20.20;99.90
48666;DHT22;34452;50.796;4.994;2023-08-17T09:52:31;20.30;99.90
48666;DHT22;34452;50.796;4.994;2023-08-17T09:54:58;20.40;99.90
48666;DHT22;34452;50.796;4.994;2023-08-17T09:57:29;20.50;99.90
48666;DHT22;34452;50.796;4.994;2023-08-17T09:59:55;20.50;99.90
48666;DHT22;34452;50.796;4.994;2023-08-17T10:02:22;20.50;99.90
48666;DHT22;34452;50.796;4.994;2023-08-17T10:04:52;20.20;99.90
48666;DHT22;34452;50.796;4.994;2023-08-17T10:07:19;20.20;99.90
48666;DHT22;34452;50.796;4.994;2023-08-17T10:09:53;20.10;99.90
48666;DHT22;34452;50.796;4.994;2023-08-17T10:12:25;20.00;99.90
48666;DHT22;34452;50.796;4.994;2023-08-17T10:14:59;20.10;99.90
48666;DHT22;34452;50.796;4.994;2023-08-17T10:17:33;20.10;99.90
48666;DHT22;34452;50.796;4.994;2023-08-17T10:20:00;20.00;99.90
48666;DHT22;34452;50.796;4.994;2023-08-17T10:22:31;20.00;99.90
48666;DHT22;34452;50.796;4.994;2023-08-17T10:25:00;19.90;99.90
48666;DHT22;34452;50.796;4.994;2023-08-17T10:27:26;19.90;99.90
48666;DHT22;34452;50.796;4.994;2023-08-17T10:29:53;19.80;99.90
48666;DHT22;34452;50.796;4.994;2023-08-17T10:32:20;19.90;99.90
48666;DHT22;34452;50.796;4.994;2023-08-17T10:34:46;19.80;99.90
48666;DHT22;34452;50.796;4.994;2023-08-17T10:37:14;19.90;99.90
48666;DHT22;34452;50.796;4.994;2023-08-17T10:39:45;19.90;99.90
48666;DHT22;34452;50.796;4.994;2023-08-17T10:42:13;20.10;99.90
48666;DHT22;34452;50.796;4.994;2023-08-17T10:44:43;20.20;99.90
48666;DHT22;34452;50.796;4.994;2023-08-17T10:50:07;20.20;99.90
48666;DHT22;34452;50.796;4.994;2023-08-17T10:52:48;20.20;99.90
48666;DHT22;34452;50.796;4.994;2023-08-17T10:55:14;20.40;99.90
48666;DHT22;34452;50.796;4.994;2023-08-17T10:57:42;20.60;99.90
48666;DHT22;34452;50.796;4.994;2023-08-17T11:02:37;20.60;99.90
48666;DHT22;34452;50.796;4.994;2023-08-17T11:05:03;20.70;99.90
48666;DHT22;34452;50.796;4.994;2023-08-17T11:07:40;20.80;99.90
48666;DHT22;34452;50.796;4.994;2023-08-17T11:12:56;20.90;99.90
48666;DHT22;34452;50.796;4.994;2023-08-17T11:15:25;20.90;99.90
48666;DHT22;34452;50.796;4.994;2023-08-17T11:17:52;20.80;99.90
48666;DHT22;34452;50.796;4.994;2023-08-17T11:20:18;20.70;99.90
48666;DHT22;34452;50.796;4.994;2023-08-17T11:22:46;20.70;99.90
48666;DHT22;34452;50.796;4.994;2023-08-17T11:25:12;20.80;99.90
48666;DHT22;34452;50.796;4.994;2023-08-17T11:27:38;20.90;99.90
48666;DHT22;34452;50.796;4.994;2023-08-17T11:30:04;21.00;99.90
48666;DHT22;34452;50.796;4.994;2023-08-17T11:32:30;21.00;99.90
48666;DHT22;34452;50.796;4.994;2023-08-17T11:34:56;21.00;99.90
48666;DHT22;34452;50.796;4.994;2023-08-17T11:37:21;21.00;99.90
48666;DHT22;34452;50.796;4.994;2023-08-17T11:39:47;21.10;99.90
48666;DHT22;34452;50.796;4.994;2023-08-17T11:42:13;21.00;99.90
48666;DHT22;34452;50.796;4.994;2023-08-17T11:44:40;21.10;99.90
48666;DHT22;34452;50.796;4.994;2023-08-17T11:47:06;21.20;99.90
48666;DHT22;34452;50.796;4.994;2023-08-17T11:49:32;21.10;99.90
48666;DHT22;34452;50.796;4.994;2023-08-17T11:51:58;21.00;99.90
48666;DHT22;34452;50.796;4.994;2023-08-17T11:54:24;21.10;99.90
48666;DHT22;34452;50.796;4.994;2023-08-17T11:56:49;21.00;99.90
48666;DHT22;34452;50.796;4.994;2023-08-17T11:59:15;20.90;99.90
48666;DHT22;34452;50.796;4.994;2023-08-17T12:01:44;20.80;99.90
48666;DHT22;34452;50.796;4.994;2023-08-17T12:04:10;20.90;99.90
48666;DHT22;34452;50.796;4.994;2023-08-17T12:06:43;21.00;99.90
48666;DHT22;34452;50.796;4.994;2023-08-17T12:09:09;21.20;99.90
48666;DHT22;34452;50.796;4.994;2023-08-17T12:11:35;21.30;99.90
48666;DHT22;34452;50.796;4.994;2023-08-17T12:14:08;21.30;99.90
48666;DHT22;34452;50.796;4.994;2023-08-17T12:16:45;21.30;99.90
48666;DHT22;34452;50.796;4.994;2023-08-17T12:19:12;21.30;99.90
48666;DHT22;34452;50.796;4.994;2023-08-17T12:21:42;21.20;99.90
48666;DHT22;34452;50.796;4.994;2023-08-17T12:24:09;21.20;99.90
48666;DHT22;34452;50.796;4.994;2023-08-17T12:26:41;21.10;99.90
48666;DHT22;34452;50.796;4.994;2023-08-17T12:29:08;21.20;99.90
48666;DHT22;34452;50.796;4.994;2023-08-17T12:31:34;21.30;99.90
48666;DHT22;34452;50.796;4.994;2023-08-17T12:34:00;21.20;99.90
48666;DHT22;34452;50.796;4.994;2023-08-17T12:36:26;21.20;99.90
48666;DHT22;34452;50.796;4.994;2023-08-17T12:38:52;21.20;99.90
48666;DHT22;34452;50.796;4.994;2023-08-17T12:41:18;21.30;99.90
48666;DHT22;34452;50.796;4.994;2023-08-17T12:43:44;21.20;99.90
48666;DHT22;34452;50.796;4.994;2023-08-17T12:46:09;21.10;99.90
48666;DHT22;34452;50.796;4.994;2023-08-17T12:48:36;21.20;99.90
48666;DHT22;34452;50.796;4.994;2023-08-17T12:51:02;21.00;99.90
48666;DHT22;34452;50.796;4.994;2023-08-17T12:53:28;21.00;99.90
48666;DHT22;34452;50.796;4.994;2023-08-17T12:55:54;21.10;99.90
48666;DHT22;34452;50.796;4.994;2023-08-17T12:58:20;21.20;99.90
48666;DHT22;34452;50.796;4.994;2023-08-17T13:00:45;21.20;99.90
48666;DHT22;34452;50.796;4.994;2023-08-17T13:03:11;21.10;99.90
48666;DHT22;34452;50.796;4.994;2023-08-17T13:05:37;21.00;99.90
48666;DHT22;34452;50.796;4.994;2023-08-17T13:08:05;21.20;99.90
48666;DHT22;34452;50.796;4.994;2023-08-17T13:10:31;21.10;99.90
48666;DHT22;34452;50.796;4.994;2023-08-17T13:12:56;21.10;99.90
48666;DHT22;34452;50.796;4.994;2023-08-17T13:15:24;21.00;99.90
48666;DHT22;34452;50.796;4.994;2023-08-17T13:17:50;21.10;99.90
48666;DHT22;34452;50.796;4.994;2023-08-17T13:20:16;21.00;99.90
48666;DHT22;34452;50.796;4.994;2023-08-17T13:22:42;20.90;99.90
48666;DHT22;34452;50.796;4.994;2023-08-17T13:25:08;21.00;99.90
48666;DHT22;34452;50.796;4.994;2023-08-17T13:27:33;21.10;99.90
48666;DHT22;34452;50.796;4.994;2023-08-17T13:29:59;20.90;99.90
48666;DHT22;34452;50.796;4.994;2023-08-17T13:32:27;21.00;99.90
48666;DHT22;34452;50.796;4.994;2023-08-17T13:34:52;21.20;99.90
48666;DHT22;34452;50.796;4.994;2023-08-17T13:37:18;21.40;99.90
48666;DHT22;34452;50.796;4.994;2023-08-17T13:39:45;21.50;99.90
48666;DHT22;34452;50.796;4.994;2023-08-17T13:42:11;21.40;99.90
48666;DHT22;34452;50.796;4.994;2023-08-17T13:44:37;21.40;99.90
48666;DHT22;34452;50.796;4.994;2023-08-17T13:47:03;21.40;99.90
48666;DHT22;34452;50.796;4.994;2023-08-17T13:49:28;21.40;99.90
48666;DHT22;34452;50.796;4.994;2023-08-17T13:51:54;21.40;99.90
48666;DHT22;34452;50.796;4.994;2023-08-17T13:54:22;21.40;99.90
48666;DHT22;34452;50.796;4.994;2023-08-17T13:56:48;21.40;99.90
48666;DHT22;34452;50.796;4.994;2023-08-17T13:59:13;21.40;99.90
48666;DHT22;34452;50.796;4.994;2023-08-17T14:01:39;21.40;99.90
48666;DHT22;34452;50.796;4.994;2023-08-17T14:04:06;21.40;99.90
48666;DHT22;34452;50.796;4.994;2023-08-17T14:06:37;21.40;99.90
48666;DHT22;34452;50.796;4.994;2023-08-17T14:09:03;21.70;99.90
48666;DHT22;34452;50.796;4.994;2023-08-17T14:11:28;21.80;99.90
48666;DHT22;34452;50.796;4.994;2023-08-17T14:13:54;21.80;99.90
48666;DHT22;34452;50.796;4.994;2023-08-17T14:16:20;21.90;99.90
48666;DHT22;34452;50.796;4.994;2023-08-17T14:18:46;21.80;99.90
48666;DHT22;34452;50.796;4.994;2023-08-17T14:21:12;21.70;99.90
48666;DHT22;34452;50.796;4.994;2023-08-17T14:23:38;21.60;99.90
48666;DHT22;34452;50.796;4.994;2023-08-17T14:26:04;21.60;99.90
48666;DHT22;34452;50.796;4.994;2023-08-17T14:28:30;21.60;99.90
48666;DHT22;34452;50.796;4.994;2023-08-17T14:30:56;21.60;99.90
48666;DHT22;34452;50.796;4.994;2023-08-17T14:33:21;21.60;99.90
48666;DHT22;34452;50.796;4.994;2023-08-17T14:35:47;21.70;99.90
48666;DHT22;34452;50.796;4.994;2023-08-17T14:38:13;21.70;99.90
48666;DHT22;34452;50.796;4.994;2023-08-17T14:40:43;21.70;99.90
48666;DHT22;34452;50.796;4.994;2023-08-17T14:43:10;21.60;99.90
48666;DHT22;34452;50.796;4.994;2023-08-17T14:45:38;21.60;99.90
48666;DHT22;34452;50.796;4.994;2023-08-17T14:48:04;21.50;99.90
48666;DHT22;34452;50.796;4.994;2023-08-17T14:50:30;21.40;99.90
48666;DHT22;34452;50.796;4.994;2023-08-17T14:52:56;21.30;99.90
48666;DHT22;34452;50.796;4.994;2023-08-17T14:55:21;21.20;99.90
48666;DHT22;34452;50.796;4.994;2023-08-17T14:57:47;21.20;99.90
48666;DHT22;34452;50.796;4.994;2023-08-17T15:00:13;21.20;99.90
48666;DHT22;34452;50.796;4.994;2023-08-17T15:02:39;21.20;99.90
48666;DHT22;34452;50.796;4.994;2023-08-17T15:05:05;21.10;99.90
48666;DHT22;34452;50.796;4.994;2023-08-17T15:07:31;21.20;99.90
48666;DHT22;34452;50.796;4.994;2023-08-17T15:09:57;21.30;99.90
48666;DHT22;34452;50.796;4.994;2023-08-17T15:12:23;21.40;99.90
48666;DHT22;34452;50.796;4.994;2023-08-17T15:14:49;21.50;99.90
48666;DHT22;34452;50.796;4.994;2023-08-17T15:17:14;21.50;99.90
48666;DHT22;34452;50.796;4.994;2023-08-17T15:19:40;21.50;99.90
48666;DHT22;34452;50.796;4.994;2023-08-17T15:22:06;21.60;99.90
48666;DHT22;34452;50.796;4.994;2023-08-17T15:24:32;21.60;99.90
48666;DHT22;34452;50.796;4.994;2023-08-17T15:26:57;21.70;99.90
48666;DHT22;34452;50.796;4.994;2023-08-17T15:29:23;21.90;99.90
48666;DHT22;34452;50.796;4.994;2023-08-17T15:31:49;22.10;99.90
48666;DHT22;34452;50.796;4.994;2023-08-17T15:34:14;22.20;99.90
48666;DHT22;34452;50.796;4.994;2023-08-17T15:36:40;22.10;99.90
48666;DHT22;34452;50.796;4.994;2023-08-17T15:39:06;22.20;99.90
48666;DHT22;34452;50.796;4.994;2023-08-17T15:41:31;22.20;99.90